Disclaimer

Please do not use the information listed here in-flight or in-navigation, as they are not provided to us by the airports but are provided by volunteers, so they might be outdated.

Search


Regions


Airport information page

Radio informations:
CONFINS TWR - 118.2 MHz
BELO HORIZONTE O - 122.5 MHz
Ground (GND) - 121.9 MHz
CONFINS CLNC DEL - 121.0 MHz
BELO HORIZONTE A - 127.45 MHz
BELO HORIZONTE A - 120.2 MHz

Airport informations:
Latitude: 19° 38' 01.50" S
Longitude: 043° 58' 07.88" W
Elevation: 2715 feet - 828 meters
Operating hours: 24 hour operations
Operating agency: Civil government, landing fees and diplomatic clearance may be required
Timezone: UTC-3(-2DT)
Fuel: Jet A1, without icing nhibitor.

Runway information:
16/34 - 9843 x 148 feet< - >3000 x 45 meters

Recent METARs:
SBCF 201400Z 04006KT 9999 SCT013 BKN035 BKN100 22/19 Q1020
SBCF 201400Z 04006KT 9999 SCT013 BKN035 BKN100 22/19 Q1020
SBCF 201500Z 05009KT 9999 SCT013 BKN035 BKN100 22/18 Q1019

Airport on the map: